Tropical Cyclones
[Index]
Main Index Home Page Stock Weather Photos Extreme Storms Discussion Storm News and Storm Chasing Reports Tropical Cyclones / Hurricanes / Typhoons Weather Data and Links Wild Fires / Bushfires Weather Observation Techniques Weather Picture Catalogue Tornado Pictures and Reports Stock Video Footage and DVDs for sale
Season 2003-2004 Tropical Cyclone LINDA Track Map
Season 2003-2004 Summaries: [BoM-AU] [JTWC-AU] [JTWC-SIO] [JTWC-SPAC] [JTWC-SH]
<<- Previous TC | JTWC 2003-2004 Season | Next TC ->>

click for intensity scale information  Lat/long Grid: Show Hide

 Date Labels: Show Hide

Joint Typhoon Warning Centre Cyclone Data

Name: LINDA

28 Jan 2004 00:00 UTC to 02 Feb 2004 06:00 UTC

    date/time    lat    long     hPa   cat  kts
2004-01-28 00    6.0    89.5    1002         25          
2004-01-28 06    6.5    90.0    1002         25          
2004-01-28 12    7.1    90.6    1000         30          
2004-01-28 18    7.7    91.4    1000         30          
2004-01-29 00    8.1    92.4     997         35          
2004-01-29 06    8.8    93.0     997         35          
2004-01-29 12    9.5    93.6     997         35          
2004-01-29 18   10.3    94.1     997         35          
2004-01-30 00   11.0    94.6     997         35          
2004-01-30 06   11.7    95.2     997         35          
2004-01-30 12   12.5    96.0     997         35          
2004-01-30 18   13.6    96.2     994    1    40          
2004-01-31 00   14.7    96.2     991    1    45          
2004-01-31 06   15.6    96.0     991    1    45          
2004-01-31 12   16.4    96.1     991    1    45          
2004-01-31 18   17.1    95.8     991    1    45          
2004-02-01 00   17.8    95.6     991    1    45          
2004-02-01 06   18.3    95.4     994    1    40          
2004-02-01 12   18.8    95.3     997         35          
2004-02-01 18   19.3    95.1    1000         30          
2004-02-02 00   19.8    94.8    1000         30          
2004-02-02 06   20.5    94.8    1000         30          
Winds are 1-min average.

Tropical cyclone tracks developed by Michael Bath using data from the Joint Typhoon Warning Centre Best Tracks and Google Maps.


[Australian Severe Weather index] [Copyright Notice] [Email Contacts] [Search This Site] [Privacy Policy]
Document: tropical_cyclone_linda.htm Updated: 28 June 2017